createdAt,value
2016-08-29T00:00:44.553Z,0
2016-08-29T00:01:50.840Z,0
2016-08-29T00:02:44.607Z,0
2016-08-29T00:03:44.634Z,0
2016-08-29T00:04:45.377Z,0
2016-08-29T00:05:45.410Z,0
2016-08-29T00:06:44.737Z,0
2016-08-29T00:07:44.869Z,0
2016-08-29T00:08:44.783Z,0
2016-08-29T00:09:44.840Z,0
2016-08-29T00:10:44.888Z,0
2016-08-29T00:11:44.875Z,0
2016-08-29T00:12:44.911Z,0
2016-08-29T00:13:44.930Z,0
2016-08-29T00:14:44.963Z,0
2016-08-29T00:15:45.039Z,0
2016-08-29T00:16:45.123Z,0
2016-08-29T00:17:45.059Z,0
2016-08-29T00:18:45.284Z,0
2016-08-29T00:19:45.110Z,0
2016-08-29T00:20:45.135Z,0
2016-08-29T00:21:45.265Z,0
2016-08-29T00:22:45.195Z,0
2016-08-29T00:23:45.233Z,0
2016-08-29T00:24:45.309Z,0
2016-08-29T00:25:45.289Z,0
2016-08-29T00:26:45.428Z,0
2016-08-29T00:27:45.461Z,0
2016-08-29T00:28:45.377Z,0
2016-08-29T00:29:45.401Z,0
2016-08-29T00:30:45.439Z,0
2016-08-29T00:31:45.467Z,0
2016-08-29T00:32:45.606Z,0
2016-08-29T00:33:45.532Z,0
2016-08-29T00:34:45.553Z,0
2016-08-29T00:35:45.583Z,0
2016-08-29T00:36:45.660Z,0
2016-08-29T00:37:45.887Z,0
2016-08-29T00:38:45.719Z,0
2016-08-29T00:39:45.700Z,0
2016-08-29T00:40:45.726Z,0
2016-08-29T00:41:45.760Z,0
2016-08-29T00:42:45.786Z,0
2016-08-29T00:43:45.825Z,0
2016-08-29T00:44:45.932Z,0
2016-08-29T00:45:45.871Z,0
2016-08-29T00:46:45.903Z,0
2016-08-29T00:47:45.932Z,0
2016-08-29T00:48:46.068Z,0
2016-08-29T00:49:46.076Z,0
2016-08-29T00:50:46.018Z,0
2016-08-29T00:51:46.095Z,0
2016-08-29T00:52:46.195Z,0
2016-08-29T00:53:46.121Z,0
2016-08-29T00:54:46.130Z,0
2016-08-29T00:55:46.870Z,0
2016-08-29T00:56:46.339Z,0
2016-08-29T00:57:46.222Z,0
2016-08-29T00:58:46.255Z,0
2016-08-29T00:59:46.295Z,0
2016-08-29T01:00:46.319Z,0
2016-08-29T01:01:46.373Z,0
2016-08-29T01:02:46.378Z,0
2016-08-29T01:03:46.405Z,0
2016-08-29T01:04:46.548Z,0
2016-08-29T01:05:46.589Z,0
2016-08-29T01:06:46.490Z,0
2016-08-29T01:07:46.528Z,0
2016-08-29T01:08:46.572Z,0
2016-08-29T01:09:47.288Z,0
2016-08-29T01:10:46.621Z,0
2016-08-29T01:11:46.644Z,0
2016-08-29T01:12:46.871Z,0
2016-08-29T01:13:46.700Z,0
2016-08-29T01:14:46.733Z,0
2016-08-29T01:15:46.758Z,0
2016-08-29T01:16:46.788Z,0
2016-08-29T01:17:46.822Z,0
2016-08-29T01:18:46.845Z,0
2016-08-29T01:19:46.892Z,0
2016-08-29T01:20:46.908Z,0
2016-08-29T01:21:46.927Z,0
2016-08-29T01:22:46.971Z,0
2016-08-29T01:23:46.992Z,0
2016-08-29T01:24:47.024Z,0
2016-08-29T01:25:47.047Z,0
2016-08-29T01:26:47.787Z,0
2016-08-29T01:27:47.115Z,0
2016-08-29T01:28:47.132Z,0
2016-08-29T01:29:47.165Z,0
2016-08-29T01:30:47.189Z,0
2016-08-29T01:31:47.217Z,0
2016-08-29T01:32:47.253Z,0
2016-08-29T01:33:47.278Z,0
2016-08-29T01:34:47.306Z,0
2016-08-29T01:35:47.344Z,0
2016-08-29T01:36:47.369Z,0
2016-08-29T01:37:47.391Z,0
2016-08-29T01:38:48.131Z,0
2016-08-29T01:39:47.449Z,0
2016-08-29T01:40:47.479Z,0
2016-08-29T01:41:47.525Z,0
2016-08-29T01:42:47.536Z,0
2016-08-29T01:43:47.570Z,0
2016-08-29T01:44:47.605Z,0
2016-08-29T01:45:47.625Z,0
2016-08-29T01:46:47.652Z,0
2016-08-29T01:47:47.680Z,0
2016-08-29T01:48:47.713Z,0
2016-08-29T01:49:47.744Z,0
2016-08-29T01:50:47.889Z,0
2016-08-29T01:51:47.804Z,0
2016-08-29T01:52:47.829Z,0
2016-08-29T01:53:48.559Z,0
2016-08-29T01:54:47.946Z,0
2016-08-29T01:55:47.916Z,0
2016-08-29T01:56:47.940Z,0
2016-08-29T01:57:47.971Z,0
2016-08-29T01:58:48.005Z,0
2016-08-29T01:59:48.029Z,0
2016-08-29T02:00:48.060Z,0
2016-08-29T02:01:48.196Z,0
2016-08-29T02:02:48.112Z,0
2016-08-29T02:03:48.145Z,0
2016-08-29T02:04:48.176Z,0
2016-08-29T02:05:48.368Z,0
2016-08-29T02:06:48.941Z,0
2016-08-29T02:07:48.270Z,0
2016-08-29T02:08:48.381Z,0
2016-08-29T02:09:48.321Z,0
2016-08-29T02:10:48.351Z,0
2016-08-29T02:11:48.380Z,0
2016-08-29T02:12:48.407Z,0
2016-08-29T02:13:48.438Z,0
2016-08-29T02:14:48.465Z,0
2016-08-29T02:15:48.490Z,0
2016-08-29T02:16:48.525Z,0
2016-08-29T02:17:48.550Z,0
2016-08-29T02:18:48.576Z,0
2016-08-29T02:19:48.634Z,0
2016-08-29T02:20:48.640Z,0
2016-08-29T02:21:48.665Z,0
2016-08-29T02:22:48.692Z,0
2016-08-29T02:23:48.728Z,0
2016-08-29T02:24:49.479Z,0
2016-08-29T02:25:48.773Z,0
2016-08-29T02:26:48.810Z,0
2016-08-29T02:27:48.836Z,0
2016-08-29T02:28:48.862Z,0
2016-08-29T02:29:48.907Z,0
2016-08-29T02:30:48.918Z,0
2016-08-29T02:31:48.959Z,0
2016-08-29T02:32:48.976Z,0
2016-08-29T02:33:49.059Z,0
2016-08-29T02:34:49.039Z,0
2016-08-29T02:35:49.063Z,0
2016-08-29T02:36:49.086Z,0
2016-08-29T02:37:49.118Z,0
2016-08-29T02:38:49.146Z,0
2016-08-29T02:39:49.184Z,0
2016-08-29T02:40:49.208Z,0
2016-08-29T02:41:49.242Z,0
2016-08-29T02:42:49.264Z,0
2016-08-29T02:43:49.290Z,0
2016-08-29T02:44:49.333Z,0
2016-08-29T02:45:49.348Z,0
2016-08-29T02:46:49.375Z,0
2016-08-29T02:47:49.455Z,0
2016-08-29T02:48:49.437Z,0
2016-08-29T02:49:49.469Z,0
2016-08-29T02:50:49.492Z,0
2016-08-29T02:51:49.531Z,0
2016-08-29T02:52:49.549Z,0
2016-08-29T02:53:49.586Z,0
2016-08-29T02:54:49.604Z,0
2016-08-29T02:55:49.685Z,0
2016-08-29T02:56:49.664Z,0
2016-08-29T02:57:49.702Z,0
2016-08-29T02:58:49.718Z,0
2016-08-29T02:59:49.749Z,0
2016-08-29T03:00:49.771Z,0
2016-08-29T03:01:49.821Z,0
2016-08-29T03:02:49.836Z,0
2016-08-29T03:03:49.856Z,0
2016-08-29T03:04:49.941Z,0
2016-08-29T03:05:49.927Z,0
2016-08-29T03:06:49.950Z,0
2016-08-29T03:07:49.980Z,0
2016-08-29T03:08:50.007Z,0
2016-08-29T03:09:50.046Z,0
2016-08-29T03:10:50.056Z,0
2016-08-29T03:11:50.105Z,0
2016-08-29T03:12:50.120Z,0
2016-08-29T03:13:50.155Z,0
2016-08-29T03:14:50.181Z,0
2016-08-29T03:15:50.976Z,0
2016-08-29T03:16:50.242Z,0
2016-08-29T03:17:50.288Z,0
2016-08-29T03:18:50.291Z,0
2016-08-29T03:19:50.321Z,0
2016-08-29T03:20:50.344Z,0
2016-08-29T03:21:50.378Z,0
2016-08-29T03:22:50.408Z,0
2016-08-29T03:23:50.453Z,0
2016-08-29T03:24:50.463Z,0
2016-08-29T03:25:50.501Z,0
2016-08-29T03:26:50.516Z,0
2016-08-29T03:27:51.273Z,0
2016-08-29T03:28:50.602Z,0
2016-08-29T03:29:50.605Z,0
2016-08-29T03:30:50.633Z,0
2016-08-29T03:31:50.658Z,0
2016-08-29T03:32:50.740Z,0
2016-08-29T03:33:50.712Z,0
2016-08-29T03:34:50.753Z,0
2016-08-29T03:35:50.775Z,0
2016-08-29T03:36:50.801Z,0
2016-08-29T03:37:50.838Z,0
2016-08-29T03:38:50.856Z,0
2016-08-29T03:39:50.938Z,0
2016-08-29T03:40:50.914Z,0
2016-08-29T03:41:50.953Z,0
2016-08-29T03:42:50.971Z,0
2016-08-29T03:43:50.995Z,0
2016-08-29T03:44:51.035Z,0
2016-08-29T03:45:51.058Z,0
2016-08-29T03:46:51.088Z,0
2016-08-29T03:47:51.165Z,0
2016-08-29T03:48:51.141Z,0
2016-08-29T03:49:51.175Z,0
2016-08-29T03:50:51.209Z,0
2016-08-29T03:51:51.241Z,0
2016-08-29T03:52:51.264Z,0
2016-08-29T03:53:51.288Z,0
2016-08-29T03:54:51.320Z,0
2016-08-29T03:55:51.344Z,0
2016-08-29T03:56:51.421Z,0
2016-08-29T03:57:51.447Z,0
2016-08-29T03:58:51.484Z,0
2016-08-29T03:59:51.456Z,4
2016-08-29T04:00:51.479Z,4
2016-08-29T04:01:51.520Z,4
2016-08-29T04:02:51.538Z,0
2016-08-29T04:03:51.571Z,0
2016-08-29T04:04:51.649Z,4
2016-08-29T04:05:51.625Z,4
2016-08-29T04:06:51.653Z,0
2016-08-29T04:07:51.690Z,4
2016-08-29T04:08:51.709Z,4
2016-08-29T04:09:51.739Z,4
2016-08-29T04:10:51.772Z,8
2016-08-29T04:11:51.795Z,12
2016-08-29T04:12:51.870Z,8
2016-08-29T04:13:51.857Z,12
2016-08-29T04:14:51.880Z,16
2016-08-29T04:15:51.923Z,16
2016-08-29T04:16:51.938Z,16
2016-08-29T04:17:51.962Z,20
2016-08-29T04:18:52.053Z,20
2016-08-29T04:19:52.020Z,24
2016-08-29T04:20:52.048Z,24
2016-08-29T04:21:52.090Z,28
2016-08-29T04:22:52.106Z,32
2016-08-29T04:23:52.142Z,32
2016-08-29T04:24:52.164Z,32
2016-08-29T04:25:52.192Z,32
2016-08-29T04:26:52.220Z,32
2016-08-29T04:27:52.962Z,36
2016-08-29T04:28:52.365Z,40
2016-08-29T04:29:52.311Z,40
2016-08-29T04:30:52.328Z,44
2016-08-29T04:31:52.374Z,48
2016-08-29T04:32:52.394Z,52
2016-08-29T04:33:52.416Z,52
2016-08-29T04:34:53.264Z,56
2016-08-29T04:35:53.184Z,72
2016-08-29T04:36:53.215Z,80
2016-08-29T04:37:52.529Z,76
2016-08-29T04:38:52.557Z,76
2016-08-29T04:39:52.585Z,80
2016-08-29T04:40:52.615Z,84
2016-08-29T04:41:52.642Z,92
2016-08-29T04:42:52.677Z,88
2016-08-29T04:43:53.410Z,88
2016-08-29T04:44:52.725Z,96
2016-08-29T04:45:52.754Z,104
2016-08-29T04:46:52.782Z,116
2016-08-29T04:47:52.817Z,124
2016-08-29T04:48:52.838Z,108
2016-08-29T04:49:52.882Z,136
2016-08-29T04:50:52.949Z,136
2016-08-29T04:51:52.917Z,120
2016-08-29T04:52:52.952Z,152
2016-08-29T04:53:53.025Z,160
2016-08-29T04:54:53.002Z,188
2016-08-29T04:55:53.038Z,164
2016-08-29T04:56:53.065Z,136
2016-08-29T04:57:53.095Z,128
2016-08-29T04:58:53.115Z,120
2016-08-29T04:59:53.917Z,100
2016-08-29T05:00:53.175Z,120
2016-08-29T05:01:53.203Z,148
2016-08-29T05:02:53.229Z,144
2016-08-29T05:03:53.981Z,152
2016-08-29T05:04:53.301Z,156
2016-08-29T05:05:53.332Z,164
2016-08-29T05:06:53.431Z,168
2016-08-29T05:07:53.605Z,172
2016-08-29T05:08:53.662Z,180
2016-08-29T05:09:53.501Z,168
2016-08-29T05:10:53.549Z,164
2016-08-29T05:11:53.500Z,164
2016-08-29T05:12:53.509Z,168
2016-08-29T05:13:53.650Z,180
2016-08-29T05:14:53.698Z,236
2016-08-29T05:15:53.666Z,224
2016-08-29T05:16:53.677Z,212
2016-08-29T05:17:53.655Z,236
2016-08-29T05:18:53.680Z,284
2016-08-29T05:19:53.703Z,260
2016-08-29T05:20:53.737Z,248
2016-08-29T05:21:53.764Z,304
2016-08-29T05:22:53.789Z,296
2016-08-29T05:23:53.874Z,284
2016-08-29T05:24:53.865Z,344
2016-08-29T05:25:53.886Z,328
2016-08-29T05:26:53.904Z,348
2016-08-29T05:27:53.935Z,284
2016-08-29T05:28:53.966Z,244
2016-08-29T05:29:54.031Z,300
2016-08-29T05:30:54.089Z,268
2016-08-29T05:31:54.800Z,296
2016-08-29T05:32:54.100Z,336
2016-08-29T05:33:54.167Z,332
2016-08-29T05:34:54.130Z,436
2016-08-29T05:35:54.165Z,492
2016-08-29T05:36:54.191Z,444
2016-08-29T05:37:54.216Z,428
2016-08-29T05:38:54.356Z,452
2016-08-29T05:39:54.366Z,372
2016-08-29T05:40:54.393Z,300
2016-08-29T05:41:54.562Z,288
2016-08-29T05:42:54.568Z,328
2016-08-29T05:43:55.089Z,284
2016-08-29T05:44:54.592Z,240
2016-08-29T05:45:54.587Z,216
2016-08-29T05:46:54.634Z,212
2016-08-29T05:47:54.634Z,208
2016-08-29T05:48:54.642Z,212
2016-08-29T05:49:54.652Z,224
2016-08-29T05:50:54.660Z,236
2016-08-29T05:51:54.671Z,240
2016-08-29T05:52:54.718Z,244
2016-08-29T05:53:54.737Z,252
2016-08-29T05:54:54.891Z,256
2016-08-29T05:55:55.426Z,268
2016-08-29T05:56:54.773Z,288
2016-08-29T05:57:54.775Z,284
2016-08-29T05:58:54.804Z,244
2016-08-29T05:59:54.834Z,268
2016-08-29T06:00:54.916Z,372
2016-08-29T06:01:55.605Z,464
2016-08-29T06:02:54.916Z,400
2016-08-29T06:03:54.938Z,332
2016-08-29T06:04:55.031Z,292
2016-08-29T06:05:55.003Z,288
2016-08-29T06:06:55.031Z,288
2016-08-29T06:07:55.109Z,284
2016-08-29T06:08:55.082Z,280
2016-08-29T06:09:55.115Z,280
2016-08-29T06:10:55.185Z,280
2016-08-29T06:11:55.192Z,284
2016-08-29T06:12:55.194Z,288
2016-08-29T06:13:55.226Z,288
2016-08-29T06:14:55.255Z,284
2016-08-29T06:15:55.302Z,288
2016-08-29T06:16:55.307Z,284
2016-08-29T06:17:55.333Z,288
2016-08-29T06:18:55.434Z,284
2016-08-29T06:19:55.392Z,292
2016-08-29T06:20:55.417Z,292
2016-08-29T06:21:55.457Z,292
2016-08-29T06:22:56.237Z,288
2016-08-29T06:23:55.520Z,284
2016-08-29T06:24:55.532Z,284
2016-08-29T06:25:55.556Z,284
2016-08-29T06:26:55.581Z,280
2016-08-29T06:27:55.637Z,284
2016-08-29T06:28:55.651Z,280
2016-08-29T06:29:55.850Z,280
2016-08-29T06:30:55.698Z,276
2016-08-29T06:31:55.803Z,272
2016-08-29T06:32:55.823Z,280
2016-08-29T06:33:55.882Z,272
2016-08-29T06:34:55.843Z,280
2016-08-29T06:35:55.856Z,276
2016-08-29T06:36:55.862Z,280
2016-08-29T06:37:55.888Z,288
2016-08-29T06:38:55.926Z,296
2016-08-29T06:39:55.951Z,304
2016-08-29T06:40:55.977Z,308
2016-08-29T06:41:56.016Z,308
2016-08-29T06:42:56.041Z,320
2016-08-29T06:43:56.055Z,324
2016-08-29T06:44:56.373Z,332
2016-08-29T06:45:56.116Z,332
2016-08-29T06:46:56.151Z,332
2016-08-29T06:47:56.176Z,332
2016-08-29T06:48:56.201Z,328
2016-08-29T06:49:56.238Z,328
2016-08-29T06:50:56.259Z,324
2016-08-29T06:51:56.375Z,332
2016-08-29T06:52:56.324Z,332
2016-08-29T06:53:56.335Z,328
2016-08-29T06:54:56.370Z,324
2016-08-29T06:55:56.451Z,324
2016-08-29T06:56:56.424Z,332
2016-08-29T06:57:56.463Z,340
2016-08-29T06:58:56.480Z,344
2016-08-29T06:59:57.215Z,352
2016-08-29T07:00:56.589Z,360
2016-08-29T07:01:56.566Z,368
2016-08-29T07:02:56.585Z,376
2016-08-29T07:03:56.671Z,396
2016-08-29T07:04:56.644Z,408
2016-08-29T07:05:56.673Z,412
2016-08-29T07:06:56.702Z,416
2016-08-29T07:07:56.784Z,420
2016-08-29T07:08:56.761Z,424
2016-08-29T07:09:56.787Z,436
2016-08-29T07:10:56.815Z,452
2016-08-29T07:11:56.840Z,444
2016-08-29T07:12:56.872Z,432
2016-08-29T07:13:56.955Z,416
2016-08-29T07:14:56.931Z,408
2016-08-29T07:15:56.959Z,404
2016-08-29T07:16:56.989Z,408
2016-08-29T07:17:57.077Z,416
2016-08-29T07:18:57.037Z,416
2016-08-29T07:19:57.072Z,416
2016-08-29T07:20:57.110Z,404
2016-08-29T07:21:57.832Z,400
2016-08-29T07:22:57.152Z,408
2016-08-29T07:23:57.176Z,424
2016-08-29T07:24:57.206Z,424
2016-08-29T07:25:57.247Z,424
2016-08-29T07:26:57.314Z,420
2016-08-29T07:27:57.286Z,440
2016-08-29T07:28:57.320Z,452
2016-08-29T07:29:57.402Z,452
2016-08-29T07:30:57.379Z,452
2016-08-29T07:31:58.145Z,484
2016-08-29T07:32:57.441Z,516
2016-08-29T07:33:57.453Z,516
2016-08-29T07:34:57.495Z,512
2016-08-29T07:35:57.560Z,524
2016-08-29T07:36:57.540Z,520
2016-08-29T07:37:57.566Z,504
2016-08-29T07:38:57.597Z,484
2016-08-29T07:39:57.622Z,464
2016-08-29T07:40:57.654Z,440
2016-08-29T07:41:57.681Z,424
2016-08-29T07:42:57.710Z,420
2016-08-29T07:43:57.741Z,620
2016-08-29T07:44:57.766Z,432
2016-08-29T07:45:57.800Z,396
2016-08-29T07:46:57.824Z,412
2016-08-29T07:47:57.847Z,480
2016-08-29T07:48:57.878Z,552
2016-08-29T07:49:57.910Z,480
2016-08-29T07:50:57.935Z,424
2016-08-29T07:51:57.980Z,468
2016-08-29T07:52:58.012Z,480
2016-08-29T07:53:58.018Z,560
2016-08-29T07:54:58.050Z,412
2016-08-29T07:55:58.075Z,392
2016-08-29T07:56:58.111Z,372
2016-08-29T07:57:58.133Z,404
2016-08-29T07:58:58.162Z,416
2016-08-29T07:59:58.193Z,408
2016-08-29T08:00:58.213Z,404
2016-08-29T08:01:58.262Z,412
2016-08-29T08:02:58.275Z,408
2016-08-29T08:03:58.303Z,392
2016-08-29T08:04:59.055Z,380
2016-08-29T08:05:58.369Z,376
2016-08-29T08:06:58.409Z,384
2016-08-29T08:07:58.416Z,364
2016-08-29T08:08:58.492Z,356
2016-08-29T08:09:58.471Z,364
2016-08-29T08:10:58.511Z,360
2016-08-29T08:11:58.548Z,364
2016-08-29T08:12:58.557Z,356
2016-08-29T08:13:58.772Z,332
2016-08-29T08:14:58.612Z,360
2016-08-29T08:15:58.639Z,392
2016-08-29T08:16:58.689Z,452
2016-08-29T08:17:58.698Z,408
2016-08-29T08:18:58.734Z,412
2016-08-29T08:19:58.760Z,456
2016-08-29T08:20:58.788Z,412
2016-08-29T08:21:58.930Z,424
2016-08-29T08:22:58.849Z,512
2016-08-29T08:23:58.876Z,536
2016-08-29T08:24:58.900Z,528
2016-08-29T08:25:58.928Z,776
2016-08-29T08:26:58.952Z,936
2016-08-29T08:27:58.979Z,600
2016-08-29T08:28:59.722Z,676
2016-08-29T08:29:59.160Z,800
2016-08-29T08:30:59.182Z,672
2016-08-29T08:31:59.098Z,612
2016-08-29T08:32:59.217Z,852
2016-08-29T08:33:59.249Z,728
2016-08-29T08:34:59.249Z,1344
2016-08-29T08:35:59.256Z,2032
2016-08-29T08:36:59.267Z,1916
2016-08-29T08:37:59.315Z,1496
2016-08-29T08:39:00.020Z,1336
2016-08-29T08:39:59.354Z,1356
2016-08-29T08:40:59.356Z,1556
2016-08-29T08:41:59.403Z,2060
2016-08-29T08:42:59.426Z,1112
2016-08-29T08:43:59.437Z,968
2016-08-29T08:44:59.478Z,1120
2016-08-29T08:45:59.499Z,892
2016-08-29T08:46:59.522Z,668
2016-08-29T08:47:59.570Z,1268
2016-08-29T08:48:59.589Z,1464
2016-08-29T08:49:59.610Z,1144
2016-08-29T08:50:59.638Z,628
2016-08-29T08:51:59.701Z,968
2016-08-29T08:52:59.698Z,1580
2016-08-29T08:53:59.727Z,1588
2016-08-29T08:54:59.752Z,924
2016-08-29T08:55:59.791Z,660
2016-08-29T08:56:59.815Z,692
2016-08-29T08:57:59.838Z,1184
2016-08-29T08:58:59.871Z,1232
2016-08-29T08:59:59.910Z,1224
2016-08-29T09:01:01.297Z,996
2016-08-29T09:01:59.964Z,1436
2016-08-29T09:02:59.988Z,1436
2016-08-29T09:04:00.730Z,1144
2016-08-29T09:05:00.042Z,1360
2016-08-29T09:06:00.092Z,1556
2016-08-29T09:07:00.105Z,1432
2016-08-29T09:08:00.132Z,1064
2016-08-29T09:09:00.156Z,992
2016-08-29T09:10:00.190Z,1920
2016-08-29T09:11:00.236Z,1984
2016-08-29T09:12:00.268Z,1408
2016-08-29T09:13:00.291Z,1504
2016-08-29T09:14:00.308Z,1236
2016-08-29T09:15:00.334Z,1188
2016-08-29T09:16:00.363Z,996
2016-08-29T09:17:00.392Z,740
2016-08-29T09:18:00.423Z,864
2016-08-29T09:19:00.451Z,1504
2016-08-29T09:20:00.492Z,2132
2016-08-29T09:21:00.512Z,1536
2016-08-29T09:22:00.541Z,980
2016-08-29T09:23:00.567Z,960
2016-08-29T09:24:00.604Z,1492
2016-08-29T09:25:01.334Z,2076
2016-08-29T09:26:00.653Z,1700
2016-08-29T09:27:00.694Z,1344
2016-08-29T09:28:00.762Z,880
2016-08-29T09:29:00.749Z,752
2016-08-29T09:30:00.900Z,664
2016-08-29T09:31:00.805Z,648
2016-08-29T09:32:00.847Z,720
2016-08-29T09:33:00.867Z,688
2016-08-29T09:34:00.896Z,492
2016-08-29T09:35:00.931Z,744
2016-08-29T09:36:00.974Z,828
2016-08-29T09:37:00.984Z,588
2016-08-29T09:38:01.020Z,856
2016-08-29T09:39:01.048Z,800
2016-08-29T09:40:01.086Z,800
2016-08-29T09:41:01.108Z,660
2016-08-29T09:42:01.249Z,668
2016-08-29T09:43:01.287Z,404
2016-08-29T09:44:01.185Z,484
2016-08-29T09:45:01.224Z,852
2016-08-29T09:46:01.253Z,752
2016-08-29T09:47:01.280Z,920
2016-08-29T09:48:01.307Z,964
2016-08-29T09:49:01.337Z,732
2016-08-29T09:50:01.365Z,1088
2016-08-29T09:51:01.399Z,2096
2016-08-29T09:52:01.481Z,1996
2016-08-29T09:53:01.462Z,1832
2016-08-29T09:54:01.529Z,2572
2016-08-29T09:55:01.517Z,2056
2016-08-29T09:56:01.550Z,2336
2016-08-29T09:57:01.573Z,1852
2016-08-29T09:58:01.615Z,1456
2016-08-29T09:59:01.655Z,1228
2016-08-29T10:00:01.663Z,1108
2016-08-29T10:01:02.398Z,1040
2016-08-29T10:02:01.725Z,916
2016-08-29T10:03:01.756Z,1004
2016-08-29T10:04:01.895Z,1584
2016-08-29T10:05:01.866Z,2420
2016-08-29T10:06:01.844Z,2236
2016-08-29T10:07:01.880Z,2224
2016-08-29T10:08:01.913Z,2392
2016-08-29T10:09:02.100Z,2568
2016-08-29T10:10:03.453Z,1672
2016-08-29T10:11:02.189Z,1784
2016-08-29T10:12:02.029Z,1640
2016-08-29T10:13:02.761Z,1792
2016-08-29T10:14:02.090Z,2088
2016-08-29T10:15:02.113Z,2336
2016-08-29T10:16:02.915Z,1364
2016-08-29T10:17:02.177Z,1152
2016-08-29T10:18:02.208Z,736
2016-08-29T10:19:02.949Z,1132
2016-08-29T10:20:03.641Z,1164
2016-08-29T10:21:02.292Z,1208
2016-08-29T10:22:02.382Z,1264
2016-08-29T10:23:02.440Z,1352
2016-08-29T10:24:02.436Z,1364
2016-08-29T10:25:02.419Z,1116
2016-08-29T10:26:02.453Z,1044
2016-08-29T10:27:02.538Z,1052
2016-08-29T10:28:02.565Z,1268
2016-08-29T10:29:03.259Z,1280
2016-08-29T10:30:03.489Z,1460
2016-08-29T10:31:02.604Z,1864
2016-08-29T10:32:02.679Z,1904
2016-08-29T10:33:02.656Z,1368
2016-08-29T10:34:02.685Z,1548
2016-08-29T10:35:02.719Z,1672
2016-08-29T10:36:02.767Z,1496
2016-08-29T10:37:02.899Z,1456
2016-08-29T10:38:02.814Z,1744
2016-08-29T10:39:03.553Z,1980
2016-08-29T10:40:02.874Z,2068
2016-08-29T10:41:02.900Z,1928
2016-08-29T10:42:03.009Z,2108
2016-08-29T10:43:02.957Z,2140
2016-08-29T10:44:02.995Z,1776
2016-08-29T10:45:03.029Z,1840
2016-08-29T10:46:03.202Z,1792
2016-08-29T10:47:03.188Z,2128
2016-08-29T10:48:03.223Z,1600
2016-08-29T10:49:03.421Z,1260
2016-08-29T10:50:04.081Z,1228
2016-08-29T10:51:04.314Z,1360
2016-08-29T10:52:03.249Z,1544
2016-08-29T10:53:03.979Z,1752
2016-08-29T10:54:03.301Z,1856
2016-08-29T10:55:03.326Z,1912
2016-08-29T10:56:03.486Z,1840
2016-08-29T10:57:03.505Z,1868
2016-08-29T10:58:03.432Z,1920
2016-08-29T10:59:03.470Z,1788
2016-08-29T11:00:03.482Z,1588
2016-08-29T11:01:04.289Z,1464
2016-08-29T11:02:03.548Z,1640
2016-08-29T11:03:03.631Z,1772
2016-08-29T11:04:03.727Z,1876
2016-08-29T11:05:04.850Z,1892
2016-08-29T11:06:03.682Z,1132
2016-08-29T11:07:03.704Z,1088
2016-08-29T11:08:03.841Z,1412
2016-08-29T11:09:03.812Z,1128
2016-08-29T11:10:03.945Z,1296
2016-08-29T11:11:03.820Z,1464
2016-08-29T11:12:03.850Z,1144
2016-08-29T11:13:03.885Z,1408
2016-08-29T11:14:03.916Z,2484
2016-08-29T11:15:03.946Z,3148
2016-08-29T11:16:03.981Z,3668
2016-08-29T11:17:04.002Z,3752
2016-08-29T11:18:04.036Z,3764
2016-08-29T11:19:04.089Z,3416
2016-08-29T11:20:05.318Z,3292
2016-08-29T11:21:04.134Z,2604
2016-08-29T11:22:04.156Z,2616
2016-08-29T11:23:04.206Z,2620
2016-08-29T11:24:04.216Z,2524
2016-08-29T11:25:04.344Z,2028
2016-08-29T11:26:04.281Z,1164
2016-08-29T11:27:04.313Z,1248
2016-08-29T11:28:04.397Z,916
2016-08-29T11:29:04.495Z,1264
2016-08-29T11:30:04.407Z,1688
2016-08-29T11:31:04.442Z,1512
2016-08-29T11:32:04.476Z,1692
2016-08-29T11:33:04.506Z,1508
2016-08-29T11:34:04.589Z,1536
2016-08-29T11:35:05.620Z,1576
2016-08-29T11:36:04.599Z,1580
2016-08-29T11:37:05.431Z,1832
2016-08-29T11:38:04.664Z,1740
2016-08-29T11:39:04.865Z,1556
2016-08-29T11:40:04.860Z,1096
2016-08-29T11:41:04.758Z,1552
2016-08-29T11:42:04.859Z,1104
2016-08-29T11:43:04.827Z,1104
2016-08-29T11:44:04.984Z,1608
2016-08-29T11:45:04.903Z,1248
2016-08-29T11:46:04.916Z,1492
2016-08-29T11:47:05.163Z,2024
2016-08-29T11:48:04.985Z,1396
2016-08-29T11:49:05.003Z,1220
2016-08-29T11:50:05.042Z,1108
2016-08-29T11:51:05.206Z,1076
2016-08-29T11:52:05.096Z,1136
2016-08-29T11:53:05.135Z,1236
2016-08-29T11:54:05.328Z,1368
2016-08-29T11:55:05.198Z,1496
2016-08-29T11:56:06.076Z,1708
2016-08-29T11:57:05.259Z,1956
2016-08-29T11:58:05.302Z,2236
2016-08-29T11:59:05.321Z,2796
2016-08-29T12:00:05.369Z,2836
2016-08-29T12:01:05.381Z,3008
2016-08-29T12:02:05.438Z,2808
2016-08-29T12:03:05.446Z,2104
2016-08-29T12:04:05.478Z,1948
2016-08-29T12:05:05.626Z,2544
2016-08-29T12:06:05.592Z,3332
2016-08-29T12:07:05.660Z,4032
2016-08-29T12:08:05.854Z,3576
2016-08-29T12:09:05.644Z,3364
2016-08-29T12:10:07.090Z,3232
2016-08-29T12:11:05.710Z,3244
2016-08-29T12:12:05.734Z,3380
2016-08-29T12:13:05.763Z,4072
2016-08-29T12:14:05.854Z,3428
2016-08-29T12:15:05.833Z,3404
2016-08-29T12:16:05.861Z,3636
2016-08-29T12:17:05.975Z,3472
2016-08-29T12:18:05.926Z,3416
2016-08-29T12:19:06.066Z,3272
2016-08-29T12:20:05.996Z,3120
2016-08-29T12:21:06.153Z,2860
2016-08-29T12:22:06.167Z,2540
2016-08-29T12:23:06.080Z,2532
2016-08-29T12:24:06.116Z,2492
2016-08-29T12:25:06.774Z,2448
2016-08-29T12:26:06.175Z,2464
2016-08-29T12:27:06.221Z,2444
2016-08-29T12:28:06.295Z,2508
2016-08-29T12:29:06.391Z,2544
2016-08-29T12:30:06.310Z,2544
2016-08-29T12:31:06.454Z,2816
2016-08-29T12:32:06.370Z,2712
2016-08-29T12:33:06.443Z,2296
2016-08-29T12:34:06.461Z,2208
2016-08-29T12:35:06.517Z,2356
2016-08-29T12:36:06.530Z,2528
2016-08-29T12:37:06.540Z,2632
2016-08-29T12:38:06.568Z,2500
2016-08-29T12:39:06.613Z,2436
2016-08-29T12:40:06.632Z,2432
2016-08-29T12:41:06.822Z,2824
2016-08-29T12:42:06.751Z,3188
2016-08-29T12:43:06.917Z,3404
2016-08-29T12:44:06.791Z,3344
2016-08-29T12:45:07.021Z,3132
2016-08-29T12:46:06.833Z,2900
2016-08-29T12:47:06.855Z,2900
2016-08-29T12:48:06.886Z,2744
2016-08-29T12:49:07.629Z,2588
2016-08-29T12:50:06.994Z,2424
2016-08-29T12:51:07.149Z,2208
2016-08-29T12:52:07.027Z,2168
2016-08-29T12:53:07.050Z,2268
2016-08-29T12:54:07.314Z,2472
2016-08-29T12:55:07.917Z,2596
2016-08-29T12:56:07.160Z,2532
2016-08-29T12:57:07.174Z,2580
2016-08-29T12:58:07.222Z,2280
2016-08-29T12:59:07.421Z,2356
2016-08-29T13:00:07.833Z,2332
2016-08-29T13:01:07.311Z,2528
2016-08-29T13:02:07.342Z,2420
2016-08-29T13:03:07.380Z,2192
2016-08-29T13:04:07.418Z,2288
2016-08-29T13:05:07.598Z,2604
2016-08-29T13:06:07.698Z,2424
2016-08-29T13:07:07.505Z,2036
2016-08-29T13:08:07.645Z,1808
2016-08-29T13:09:07.568Z,1880
2016-08-29T13:10:08.439Z,2132
2016-08-29T13:11:07.694Z,2376
2016-08-29T13:12:08.384Z,2612
2016-08-29T13:13:07.699Z,2392
2016-08-29T13:14:07.852Z,2192
2016-08-29T13:15:07.767Z,1920
2016-08-29T13:16:07.803Z,1600
2016-08-29T13:17:07.830Z,1668
2016-08-29T13:18:08.051Z,1916
2016-08-29T13:19:07.893Z,2296
2016-08-29T13:20:07.940Z,2592
2016-08-29T13:21:07.958Z,2676
2016-08-29T13:22:08.810Z,2764
2016-08-29T13:23:08.093Z,2844
2016-08-29T13:24:08.061Z,2772
2016-08-29T13:25:08.292Z,2416
2016-08-29T13:26:08.173Z,2028
2016-08-29T13:27:08.151Z,1952
2016-08-29T13:28:08.193Z,1984
2016-08-29T13:29:08.212Z,2216
2016-08-29T13:30:08.258Z,2604
2016-08-29T13:31:08.991Z,2856
2016-08-29T13:32:08.325Z,3320
2016-08-29T13:33:08.349Z,3380
2016-08-29T13:34:08.569Z,3372
2016-08-29T13:35:08.496Z,3420
2016-08-29T13:36:08.449Z,3384
2016-08-29T13:37:08.477Z,3028
2016-08-29T13:38:08.511Z,2940
2016-08-29T13:39:08.550Z,2900
2016-08-29T13:40:09.236Z,2892
2016-08-29T13:41:08.722Z,2948
2016-08-29T13:42:08.644Z,2900
2016-08-29T13:43:08.682Z,2736
2016-08-29T13:44:08.706Z,2652
2016-08-29T13:45:08.978Z,2836
2016-08-29T13:46:08.891Z,3020
2016-08-29T13:47:08.812Z,3004
2016-08-29T13:48:08.844Z,3120
2016-08-29T13:49:08.869Z,2936
2016-08-29T13:50:09.020Z,3084
2016-08-29T13:51:08.941Z,3192
2016-08-29T13:52:08.964Z,3420
2016-08-29T13:53:09.050Z,3300
2016-08-29T13:54:09.032Z,3024
2016-08-29T13:55:09.351Z,2824